Time;durP1;ratioP1;P1;durP2;ratioP2;P2;SDS_P1;SDS_P2;PMS_P1;PMS_P2;Temp;Humidity;BMP_temperature;BMP_pressure;BME280_temperature;BME280_humidity;BME280_pressure;Samples;Min_cycle;Max_cycle;Signal;HPM_P1;HPM_P2
2022/07/27 00:00:47;;;;;;;2.60;1.03;;;;;;;;;;5117274;28;20940;-56
2022/07/27 00:03:14;;;;;;;4.00;1.53;;;;;;;;;;5117181;28;20840;-54
2022/07/27 00:05:41;;;;;;;2.60;1.23;;;;;;;;;;5117052;28;20445;-55
2022/07/27 00:08:08;;;;;;;3.10;1.30;;;;;;;;;;5117344;28;20882;-56
2022/07/27 00:10:35;;;;;;;4.40;1.43;;;;;;;;;;5117195;28;20456;-57
2022/07/27 00:13:01;;;;;;;5.57;1.43;;;;;;;;;;5117200;28;20450;-56
2022/07/27 00:15:30;;;;;;;3.23;1.90;;;;;;;;;;5117039;28;20831;-56
2022/07/27 00:17:59;;;;;;;4.60;1.33;;;;;;;;;;5116880;28;20449;-56
2022/07/27 00:20:26;;;;;;;4.60;1.50;;;;;;;;;;5117253;28;20517;-56
2022/07/27 00:22:53;;;;;;;3.77;1.37;;;;;;;;;;5116910;28;20479;-56
2022/07/27 00:25:20;;;;;;;4.17;1.27;;;;;;;;;;5116902;28;20456;-56
2022/07/27 00:27:47;;;;;;;3.20;1.20;;;;;;;;;;5116766;28;20533;-57
2022/07/27 00:30:14;;;;;;;3.70;1.17;;;;;;;;;;5116731;28;20536;-57
2022/07/27 00:32:42;;;;;;;3.37;1.47;;;;;;;;;;5116588;28;20453;-55
2022/07/27 00:35:10;;;;;;;4.50;1.50;;;;;;;;;;5116815;28;20449;-56
2022/07/27 00:37:37;;;;;;;5.67;1.40;;;;;;;;;;5116670;28;20450;-56
2022/07/27 00:40:05;;;;;;;2.50;1.23;;;;;;;;;;5116653;28;20532;-55
2022/07/27 00:42:32;;;;;;;3.07;1.13;;;;;;;;;;5116412;28;20568;-57
2022/07/27 00:44:59;;;;;;;7.93;1.70;;;;;;;;;;5116452;28;20452;-56
2022/07/27 00:47:26;;;;;;;3.53;1.07;;;;;;;;;;5116307;28;20477;-56
2022/07/27 00:49:54;;;;;;;4.13;1.40;;;;;;;;;;5116429;28;20454;-56
2022/07/27 00:52:22;;;;;;;3.10;1.30;;;;;;;;;;5116191;28;21018;-56
2022/07/27 00:54:49;;;;;;;2.90;1.00;;;;;;;;;;5116261;28;20471;-55
2022/07/27 00:57:16;;;;;;;3.23;1.40;;;;;;;;;;5116025;28;20478;-56
2022/07/27 00:59:43;;;;;;;2.30;1.20;;;;;;;;;;5116116;28;20453;-55
2022/07/27 01:02:10;;;;;;;3.10;1.70;;;;;;;;;;5115905;28;20445;-54
2022/07/27 01:04:37;;;;;;;2.70;1.10;;;;;;;;;;5116172;28;20544;-58
2022/07/27 01:07:06;;;;;;;3.50;1.17;;;;;;;;;;5116136;28;20504;-57
2022/07/27 01:12:19;;;;;;;4.73;2.10;;;;;;;;;;5115858;28;20425;-54
2022/07/27 01:14:47;;;;;;;1.70;1.20;;;;;;;;;;5116044;28;20543;-54
2022/07/27 01:17:14;;;;;;;4.93;1.40;;;;;;;;;;5115779;28;20928;-56
2022/07/27 01:19:40;;;;;;;2.60;1.20;;;;;;;;;;5115823;28;20468;-55
2022/07/27 01:22:09;;;;;;;3.83;1.40;;;;;;;;;;5115741;28;20442;-57
2022/07/27 01:24:36;;;;;;;3.13;1.30;;;;;;;;;;5115554;28;20976;-55
2022/07/27 01:27:04;;;;;;;2.97;1.23;;;;;;;;;;5115518;28;20482;-56
2022/07/27 01:29:32;;;;;;;3.30;1.20;;;;;;;;;;5115738;28;20538;-56
2022/07/27 01:31:59;;;;;;;3.13;1.63;;;;;;;;;;5115541;28;20536;-55
2022/07/27 01:34:26;;;;;;;6.30;1.63;;;;;;;;;;5115536;28;20458;-56
2022/07/27 01:36:53;;;;;;;3.60;1.20;;;;;;;;;;5115512;28;20937;-56
2022/07/27 01:39:21;;;;;;;7.60;1.40;;;;;;;;;;5115314;28;20449;-53
2022/07/27 01:41:48;;;;;;;3.40;1.37;;;;;;;;;;5115433;28;20446;-55
2022/07/27 01:44:15;;;;;;;3.30;1.10;;;;;;;;;;5115321;28;20481;-55
2022/07/27 01:46:42;;;;;;;3.87;1.00;;;;;;;;;;5115359;28;20838;-56
2022/07/27 01:49:09;;;;;;;2.27;1.30;;;;;;;;;;5115183;28;20979;-56
2022/07/27 01:51:36;;;;;;;3.07;1.13;;;;;;;;;;5115102;28;20445;-56
2022/07/27 01:54:03;;;;;;;3.37;1.20;;;;;;;;;;5114986;28;20445;-57
2022/07/27 01:56:31;;;;;;;2.50;1.43;;;;;;;;;;5114929;28;20501;-55
2022/07/27 01:58:58;;;;;;;5.20;1.57;;;;;;;;;;5115164;28;20533;-55
2022/07/27 02:01:25;;;;;;;1.73;1.00;;;;;;;;;;5114488;28;20484;-57
2022/07/27 02:03:52;;;;;;;6.00;1.20;;;;;;;;;;5114891;28;20531;-55
2022/07/27 02:06:19;;;;;;;1.63;1.10;;;;;;;;;;5114772;28;20537;-56
2022/07/27 02:08:46;;;;;;;6.40;1.37;;;;;;;;;;5115039;28;20527;-56
2022/07/27 02:13:59;;;;;;;2.53;1.13;;;;;;;;;;5114731;28;20486;-56
2022/07/27 02:16:26;;;;;;;3.70;1.10;;;;;;;;;;5114678;28;20477;-55
2022/07/27 02:18:53;;;;;;;4.00;1.30;;;;;;;;;;5114527;28;20445;-56
2022/07/27 02:21:20;;;;;;;1.73;1.30;;;;;;;;;;5114727;28;20528;-54
2022/07/27 02:23:47;;;;;;;1.97;1.10;;;;;;;;;;5114541;28;20481;-53
2022/07/27 02:26:14;;;;;;;4.60;1.40;;;;;;;;;;5114650;28;20877;-55
2022/07/27 02:28:41;;;;;;;3.00;1.07;;;;;;;;;;5114475;28;20540;-55
2022/07/27 02:31:09;;;;;;;4.23;1.13;;;;;;;;;;5114298;28;20452;-56
2022/07/27 02:33:36;;;;;;;2.73;1.13;;;;;;;;;;5114217;28;20445;-56
2022/07/27 02:36:04;;;;;;;2.73;1.30;;;;;;;;;;5114446;28;20452;-54
2022/07/27 02:38:31;;;;;;;2.33;0.87;;;;;;;;;;5114423;28;20452;-56
2022/07/27 02:40:58;;;;;;;2.50;1.10;;;;;;;;;;5114276;28;20449;-55
2022/07/27 02:43:25;;;;;;;4.30;1.00;;;;;;;;;;5114163;28;21069;-57
2022/07/27 02:45:52;;;;;;;1.57;1.30;;;;;;;;;;5114119;28;20456;-55
2022/07/27 02:48:20;;;;;;;3.43;1.47;;;;;;;;;;5114056;28;20477;-56
2022/07/27 02:50:47;;;;;;;3.67;1.57;;;;;;;;;;5114216;28;20489;-57
2022/07/27 02:53:14;;;;;;;1.83;1.03;;;;;;;;;;5114086;28;20445;-56
2022/07/27 02:55:41;;;;;;;6.30;1.47;;;;;;;;;;5113826;28;20465;-57
2022/07/27 02:58:08;;;;;;;3.27;1.10;;;;;;;;;;5113938;28;20438;-56
2022/07/27 03:00:35;;;;;;;3.70;1.10;;;;;;;;;;5113743;28;20899;-56
2022/07/27 03:03:02;;;;;;;3.87;1.10;;;;;;;;;;5113467;28;20448;-56
2022/07/27 03:05:30;;;;;;;3.90;1.00;;;;;;;;;;5113864;28;20540;-57
2022/07/27 03:07:57;;;;;;;2.77;1.10;;;;;;;;;;5113725;28;20457;-57
2022/07/27 03:10:24;;;;;;;4.03;1.07;;;;;;;;;;5113681;28;20449;-56
2022/07/27 03:12:51;;;;;;;3.13;1.13;;;;;;;;;;5112769;28;20452;-57
2022/07/27 03:15:18;;;;;;;3.37;1.20;;;;;;;;;;5113506;28;20494;-56
2022/07/27 03:17:45;;;;;;;3.70;1.40;;;;;;;;;;5113608;28;20532;-56
2022/07/27 03:20:12;;;;;;;3.80;1.30;;;;;;;;;;5113610;28;20445;-56
2022/07/27 03:22:40;;;;;;;3.57;2.47;;;;;;;;;;5113539;28;20445;-57
2022/07/27 03:25:08;;;;;;;2.13;0.90;;;;;;;;;;5113463;28;20488;-57
2022/07/27 03:27:35;;;;;;;3.97;1.70;;;;;;;;;;5113418;28;20446;-58
2022/07/27 03:30:02;;;;;;;4.10;1.20;;;;;;;;;;5113574;28;20446;-56
2022/07/27 03:32:29;;;;;;;2.37;1.17;;;;;;;;;;5113339;28;20452;-57
2022/07/27 03:34:56;;;;;;;4.83;0.90;;;;;;;;;;5113455;28;20449;-57
2022/07/27 03:37:23;;;;;;;1.90;1.30;;;;;;;;;;5113360;28;20487;-56
2022/07/27 03:39:51;;;;;;;2.73;1.13;;;;;;;;;;5113259;28;20808;-57
2022/07/27 03:42:18;;;;;;;10.70;1.40;;;;;;;;;;5112981;28;20454;-55
2022/07/27 03:44:45;;;;;;;3.93;1.20;;;;;;;;;;5113328;28;20584;-57
2022/07/27 03:47:12;;;;;;;4.30;1.20;;;;;;;;;;5113341;28;20452;-56
2022/07/27 03:49:39;;;;;;;4.50;1.20;;;;;;;;;;5113249;28;20449;-55
2022/07/27 03:52:06;;;;;;;4.13;1.40;;;;;;;;;;5113188;28;20457;-56
2022/07/27 03:54:33;;;;;;;3.63;1.30;;;;;;;;;;5113172;28;20472;-56
2022/07/27 03:57:01;;;;;;;5.50;1.47;;;;;;;;;;5112951;28;20469;-55
2022/07/27 03:59:28;;;;;;;3.87;1.40;;;;;;;;;;5113201;28;20821;-56
2022/07/27 04:01:55;;;;;;;2.57;1.27;;;;;;;;;;5113172;28;20867;-56
2022/07/27 04:04:23;;;;;;;4.13;1.13;;;;;;;;;;5113044;28;20836;-55
2022/07/27 04:06:49;;;;;;;3.03;1.10;;;;;;;;;;5113115;28;20450;-57
2022/07/27 04:09:16;;;;;;;5.73;1.53;;;;;;;;;;5112992;28;20829;-56
2022/07/27 04:11:44;;;;;;;2.77;1.00;;;;;;;;;;5113167;28;20474;-56
2022/07/27 04:14:12;;;;;;;2.43;1.03;;;;;;;;;;5113092;28;20452;-57
2022/07/27 04:16:40;;;;;;;3.33;1.10;;;;;;;;;;5113044;28;20545;-57
2022/07/27 04:19:07;;;;;;;2.13;1.20;;;;;;;;;;5112957;28;20515;-57
2022/07/27 04:21:34;;;;;;;4.17;1.20;;;;;;;;;;5112856;28;20468;-56
2022/07/27 04:24:01;;;;;;;2.70;0.90;;;;;;;;;;5113585;28;20470;-58
2022/07/27 04:26:28;;;;;;;2.37;1.60;;;;;;;;;;5117013;28;20502;-57
2022/07/27 04:28:55;;;;;;;7.53;1.37;;;;;;;;;;5116796;28;20452;-57
2022/07/27 04:31:23;;;;;;;4.90;1.70;;;;;;;;;;5116621;28;20445;-57
2022/07/27 04:33:50;;;;;;;3.00;1.50;;;;;;;;;;5116578;28;20812;-57
2022/07/27 04:36:17;;;;;;;4.93;1.40;;;;;;;;;;5116501;28;21027;-57
2022/07/27 04:38:44;;;;;;;3.00;1.07;;;;;;;;;;5116436;28;20445;-56
2022/07/27 04:41:11;;;;;;;3.20;1.13;;;;;;;;;;5116514;28;20447;-56
2022/07/27 04:43:38;;;;;;;5.47;1.33;;;;;;;;;;5116435;28;20520;-57
2022/07/27 04:46:06;;;;;;;4.40;1.57;;;;;;;;;;5116417;28;20445;-56
2022/07/27 04:48:34;;;;;;;4.10;1.93;;;;;;;;;;5116318;28;20441;-57
2022/07/27 04:51:01;;;;;;;4.27;1.37;;;;;;;;;;5115964;28;20461;-56
2022/07/27 04:53:28;;;;;;;4.80;1.43;;;;;;;;;;5116365;28;20441;-56
2022/07/27 04:55:55;;;;;;;3.37;1.50;;;;;;;;;;5116064;28;20473;-57
2022/07/27 04:58:22;;;;;;;2.63;1.73;;;;;;;;;;5116262;28;20448;-56
2022/07/27 05:00:50;;;;;;;4.40;1.67;;;;;;;;;;5116041;28;20445;-56
2022/07/27 05:03:17;;;;;;;2.70;1.30;;;;;;;;;;5115950;28;20453;-57
2022/07/27 05:05:45;;;;;;;3.40;1.27;;;;;;;;;;5115748;28;20481;-57
2022/07/27 05:08:12;;;;;;;3.80;1.40;;;;;;;;;;5116083;28;20944;-58
2022/07/27 05:10:39;;;;;;;6.43;1.73;;;;;;;;;;5115907;28;20446;-55
2022/07/27 05:13:05;;;;;;;3.23;1.17;;;;;;;;;;5115927;28;20449;-57
2022/07/27 05:15:32;;;;;;;3.13;1.23;;;;;;;;;;5115804;28;20804;-57
2022/07/27 05:17:59;;;;;;;4.07;1.37;;;;;;;;;;5115671;28;20475;-57
2022/07/27 05:20:26;;;;;;;4.00;1.57;;;;;;;;;;5115531;28;20945;-57
2022/07/27 05:22:55;;;;;;;2.43;0.90;;;;;;;;;;5115696;28;20446;-55
2022/07/27 05:25:24;;;;;;;2.97;1.20;;;;;;;;;;5115579;28;20481;-56
2022/07/27 05:27:51;;;;;;;4.90;1.40;;;;;;;;;;5115569;28;20453;-56
2022/07/27 05:30:18;;;;;;;2.10;1.30;;;;;;;;;;5115438;28;20887;-57
2022/07/27 05:32:45;;;;;;;2.47;1.10;;;;;;;;;;5115159;28;20457;-57
2022/07/27 05:35:12;;;;;;;3.07;1.50;;;;;;;;;;5115405;28;20444;-55
2022/07/27 05:37:40;;;;;;;1.90;1.17;;;;;;;;;;5114860;28;20495;-55
2022/07/27 05:40:09;;;;;;;3.57;1.40;;;;;;;;;;5115566;28;20442;-54
2022/07/27 05:42:36;;;;;;;3.00;1.30;;;;;;;;;;5115289;28;20446;-55
2022/07/27 05:45:03;;;;;;;5.23;1.27;;;;;;;;;;5115024;28;20477;-57
2022/07/27 05:47:30;;;;;;;2.60;1.00;;;;;;;;;;5115119;28;20780;-56
2022/07/27 05:49:57;;;;;;;4.43;1.43;;;;;;;;;;5115257;28;20823;-56
2022/07/27 05:52:24;;;;;;;5.60;2.20;;;;;;;;;;5115220;28;20544;-56
2022/07/27 05:54:51;;;;;;;7.60;1.60;;;;;;;;;;5114960;28;20445;-55
2022/07/27 05:57:19;;;;;;;3.07;1.07;;;;;;;;;;5114804;28;20469;-57
2022/07/27 05:59:46;;;;;;;3.93;1.17;;;;;;;;;;5114873;27;20541;-55
2022/07/27 06:02:13;;;;;;;1.83;1.20;;;;;;;;;;5114891;28;20444;-56
2022/07/27 06:04:40;;;;;;;2.70;1.57;;;;;;;;;;5114590;28;20996;-55
2022/07/27 06:09:52;;;;;;;4.47;1.10;;;;;;;;;;5114765;28;20433;-57
2022/07/27 06:12:20;;;;;;;3.27;1.43;;;;;;;;;;5114508;28;20451;-57
2022/07/27 06:14:47;;;;;;;2.40;1.07;;;;;;;;;;5114714;28;20445;-56
2022/07/27 06:17:14;;;;;;;4.33;1.40;;;;;;;;;;5114698;28;20442;-56
2022/07/27 06:19:41;;;;;;;2.60;1.37;;;;;;;;;;5114510;28;20446;-57
2022/07/27 06:22:08;;;;;;;5.17;1.60;;;;;;;;;;5114496;28;20441;-57
2022/07/27 06:24:35;;;;;;;3.00;1.63;;;;;;;;;;5114332;28;20495;-56
2022/07/27 06:27:02;;;;;;;4.40;1.50;;;;;;;;;;5114212;28;20804;-55
2022/07/27 06:29:30;;;;;;;2.67;1.33;;;;;;;;;;5112208;28;20450;-55
2022/07/27 06:31:57;;;;;;;2.13;1.20;;;;;;;;;;5113677;27;20843;-55
2022/07/27 06:34:24;;;;;;;3.00;1.20;;;;;;;;;;5113711;28;20452;-54
2022/07/27 06:36:51;;;;;;;4.18;1.50;;;;;;;;;;5113626;28;20451;-57
2022/07/27 06:39:19;;;;;;;2.80;1.40;;;;;;;;;;5113779;28;20530;-57
2022/07/27 06:41:46;;;;;;;5.10;1.10;;;;;;;;;;5114130;28;20450;-55
2022/07/27 06:44:13;;;;;;;5.60;1.73;;;;;;;;;;5113927;28;20462;-57
2022/07/27 06:46:41;;;;;;;5.50;1.50;;;;;;;;;;5114036;28;20537;-57
2022/07/27 06:49:08;;;;;;;3.20;1.13;;;;;;;;;;5113901;28;20450;-52
2022/07/27 06:51:35;;;;;;;4.40;1.17;;;;;;;;;;5113798;28;20452;-52
2022/07/27 06:54:02;;;;;;;3.70;1.20;;;;;;;;;;5113626;28;20452;-54
2022/07/27 06:56:29;;;;;;;3.90;1.50;;;;;;;;;;5113622;28;20473;-55
2022/07/27 06:58:55;;;;;;;3.30;1.30;;;;;;;;;;5113750;28;20537;-55
2022/07/27 07:01:23;;;;;;;2.43;1.10;;;;;;;;;;5113650;28;20949;-55
2022/07/27 07:03:51;;;;;;;2.83;1.20;;;;;;;;;;5113617;28;20453;-55
2022/07/27 07:06:18;;;;;;;2.83;1.30;;;;;;;;;;5113369;28;20564;-56
2022/07/27 07:08:45;;;;;;;3.03;1.20;;;;;;;;;;5112984;28;20804;-53
2022/07/27 07:11:12;;;;;;;4.20;1.67;;;;;;;;;;5113542;28;20452;-56
2022/07/27 07:13:40;;;;;;;4.17;1.40;;;;;;;;;;5113492;28;20448;-52
2022/07/27 07:16:07;;;;;;;5.43;1.40;;;;;;;;;;5113592;28;20949;-54
2022/07/27 07:18:34;;;;;;;8.70;1.40;;;;;;;;;;5113279;28;20452;-54
2022/07/27 07:21:02;;;;;;;2.60;1.13;;;;;;;;;;5113194;28;20506;-57
2022/07/27 07:23:29;;;;;;;4.07;1.17;;;;;;;;;;5113371;28;20446;-56
2022/07/27 07:25:56;;;;;;;2.77;1.40;;;;;;;;;;5113125;28;20509;-56
2022/07/27 07:28:23;;;;;;;1.57;1.00;;;;;;;;;;5113274;28;20812;-56
2022/07/27 07:30:50;;;;;;;3.20;1.10;;;;;;;;;;5113184;28;20456;-57
2022/07/27 07:33:17;;;;;;;3.00;1.40;;;;;;;;;;5112933;28;20452;-57
2022/07/27 07:35:44;;;;;;;9.47;2.90;;;;;;;;;;5112634;28;20847;-57
2022/07/27 07:38:12;;;;;;;1.60;1.10;;;;;;;;;;5112559;28;20962;-55
2022/07/27 07:40:39;;;;;;;2.27;1.20;;;;;;;;;;5113219;28;20481;-54
2022/07/27 07:43:06;;;;;;;3.63;1.40;;;;;;;;;;5108010;28;20458;-60
2022/07/27 07:45:36;;;;;;;4.10;1.30;;;;;;;;;;5110866;28;20484;-60
2022/07/27 07:48:03;;;;;;;4.30;1.73;;;;;;;;;;5111082;28;20999;-63
2022/07/27 07:50:30;;;;;;;2.10;1.37;;;;;;;;;;5112888;28;20434;-62
2022/07/27 07:52:58;;;;;;;7.13;1.23;;;;;;;;;;5106417;28;20453;-60
2022/07/27 07:55:27;;;;;;;5.80;1.50;;;;;;;;;;5112885;28;20812;-61
2022/07/27 07:57:54;;;;;;;7.93;1.40;;;;;;;;;;5109272;28;20468;-64
2022/07/27 08:00:22;;;;;;;4.33;1.30;;;;;;;;;;5095695;28;20858;-58
2022/07/27 08:02:49;;;;;;;2.13;1.10;;;;;;;;;;5097564;27;20557;-58
2022/07/27 08:05:17;;;;;;;4.17;1.47;;;;;;;;;;5114797;28;20493;-62
2022/07/27 08:07:44;;;;;;;3.53;1.13;;;;;;;;;;5115808;28;20457;-63
2022/07/27 08:10:12;;;;;;;4.07;1.20;;;;;;;;;;5116721;28;20445;-63
2022/07/27 08:12:42;;;;;;;2.80;1.20;;;;;;;;;;5114698;27;20507;-63
2022/07/27 08:15:10;;;;;;;1.63;1.00;;;;;;;;;;5116488;28;20445;-63
2022/07/27 08:17:37;;;;;;;1.50;1.20;;;;;;;;;;5116066;28;20457;-59
2022/07/27 08:20:05;;;;;;;1.93;1.10;;;;;;;;;;5116226;28;20940;-61
2022/07/27 08:22:31;;;;;;;1.30;1.20;;;;;;;;;;5116691;28;20445;-60
2022/07/27 08:24:58;;;;;;;2.50;1.20;;;;;;;;;;5116578;28;20828;-61
2022/07/27 08:27:25;;;;;;;1.83;0.90;;;;;;;;;;5116615;28;20449;-59
2022/07/27 08:29:54;;;;;;;1.97;1.07;;;;;;;;;;5109759;27;20476;-60
2022/07/27 08:32:21;;;;;;;2.50;1.10;;;;;;;;;;5115735;28;20452;-62
2022/07/27 08:34:48;;;;;;;3.47;1.30;;;;;;;;;;5116048;27;20492;-62
2022/07/27 08:37:15;;;;;;;1.40;1.03;;;;;;;;;;5115690;28;20455;-59
2022/07/27 08:39:41;;;;;;;2.63;1.00;;;;;;;;;;5114036;28;20449;-60
2022/07/27 08:42:09;;;;;;;2.60;1.10;;;;;;;;;;5113577;27;20445;-61
2022/07/27 08:44:39;;;;;;;1.10;0.80;;;;;;;;;;5102938;28;20457;-60
2022/07/27 08:47:09;;;;;;;2.90;1.20;;;;;;;;;;5113185;28;20450;-60
2022/07/27 08:49:36;;;;;;;0.90;0.73;;;;;;;;;;5115933;28;20984;-61
2022/07/27 08:52:03;;;;;;;2.80;1.17;;;;;;;;;;5116035;28;20441;-65
2022/07/27 08:54:31;;;;;;;1.87;0.90;;;;;;;;;;5113767;28;20453;-49
2022/07/27 08:56:58;;;;;;;3.63;1.10;;;;;;;;;;5114388;28;20824;-59
2022/07/27 08:59:25;;;;;;;1.90;0.90;;;;;;;;;;5114807;28;20444;-62
2022/07/27 09:01:52;;;;;;;3.97;1.10;;;;;;;;;;5114965;27;20448;-62
2022/07/27 09:04:20;;;;;;;1.33;0.90;;;;;;;;;;5102937;28;20561;-60
2022/07/27 09:06:48;;;;;;;6.63;1.03;;;;;;;;;;5115274;28;20503;-60
2022/07/27 09:09:16;;;;;;;3.60;1.10;;;;;;;;;;5115696;28;20456;-60
2022/07/27 09:11:44;;;;;;;2.70;1.07;;;;;;;;;;5113020;28;20565;-58
2022/07/27 09:14:13;;;;;;;2.73;0.87;;;;;;;;;;5096947;28;20937;-57
2022/07/27 09:16:40;;;;;;;3.37;1.03;;;;;;;;;;5101911;27;20442;-59
2022/07/27 09:19:08;;;;;;;2.50;1.10;;;;;;;;;;5115481;28;20535;-60
2022/07/27 09:21:36;;;;;;;1.93;0.87;;;;;;;;;;5114369;28;20473;-62
2022/07/27 09:24:07;;;;;;;1.47;0.83;;;;;;;;;;5094626;28;20446;-62
2022/07/27 09:26:34;;;;;;;1.90;0.90;;;;;;;;;;5102614;28;20564;-62
2022/07/27 09:29:02;;;;;;;1.43;0.90;;;;;;;;;;5114235;27;20450;-61
2022/07/27 09:31:30;;;;;;;3.13;1.00;;;;;;;;;;5115316;28;20479;-62
2022/07/27 09:33:57;;;;;;;2.40;0.97;;;;;;;;;;5115198;28;20534;-61
2022/07/27 09:36:26;;;;;;;1.33;0.70;;;;;;;;;;5113385;28;20446;-62
2022/07/27 09:38:56;;;;;;;3.60;0.97;;;;;;;;;;5113960;28;20525;-61
2022/07/27 09:41:23;;;;;;;2.03;0.87;;;;;;;;;;5115101;28;20469;-61
2022/07/27 09:43:51;;;;;;;3.10;1.53;;;;;;;;;;5113904;28;20441;-61
2022/07/27 09:46:29;;;;;;;3.47;1.70;;;;;;;;;;5112280;27;20477;-60
2022/07/27 09:48:56;;;;;;;2.90;1.20;;;;;;;;;;5114752;28;20445;-60
2022/07/27 09:51:24;;;;;;;1.37;0.73;;;;;;;;;;5114884;28;20541;-59
2022/07/27 09:53:51;;;;;;;4.97;1.10;;;;;;;;;;5114909;28;20473;-58
2022/07/27 09:56:25;;;;;;;3.53;0.90;;;;;;;;;;5113827;28;20564;-58
2022/07/27 09:58:54;;;;;;;3.73;0.97;;;;;;;;;;5101071;28;20456;-61
2022/07/27 10:01:22;;;;;;;2.10;1.00;;;;;;;;;;5114580;28;20952;-61
2022/07/27 10:03:50;;;;;;;3.00;0.90;;;;;;;;;;5114873;28;20446;-61
2022/07/27 10:06:17;;;;;;;2.63;1.20;;;;;;;;;;5107663;28;20983;-61
2022/07/27 10:08:45;;;;;;;2.10;1.03;;;;;;;;;;5104175;28;20450;-66
2022/07/27 10:11:13;;;;;;;2.77;0.87;;;;;;;;;;5103246;27;20626;-58
2022/07/27 10:13:41;;;;;;;1.73;1.03;;;;;;;;;;5106174;28;20456;-59
2022/07/27 10:16:12;;;;;;;2.83;0.73;;;;;;;;;;5113322;28;20511;-59
2022/07/27 10:18:43;;;;;;;2.00;1.17;;;;;;;;;;5114119;28;20495;-58
2022/07/27 10:21:10;;;;;;;2.33;1.00;;;;;;;;;;5113688;28;20450;-59
2022/07/27 10:23:38;;;;;;;1.10;1.00;;;;;;;;;;5112027;28;20446;-59
2022/07/27 10:26:19;;;;;;;2.13;0.90;;;;;;;;;;5102530;28;20492;-59
2022/07/27 10:28:54;;;;;;;3.50;1.20;;;;;;;;;;5099713;27;20453;-59
2022/07/27 10:31:23;;;;;;;2.80;1.13;;;;;;;;;;5112903;28;20819;-62
2022/07/27 10:33:51;;;;;;;2.13;1.00;;;;;;;;;;5101867;28;20541;-58
2022/07/27 10:36:19;;;;;;;1.83;1.33;;;;;;;;;;5104718;28;20541;-58
2022/07/27 10:38:47;;;;;;;1.90;1.10;;;;;;;;;;5113671;28;20450;-59
2022/07/27 10:41:21;;;;;;;1.40;1.10;;;;;;;;;;5113892;28;20449;-60
2022/07/27 10:43:49;;;;;;;2.97;1.00;;;;;;;;;;5112631;28;20465;-60
2022/07/27 10:46:21;;;;;;;4.50;1.63;;;;;;;;;;5114020;28;20859;-60
2022/07/27 10:48:48;;;;;;;1.90;0.90;;;;;;;;;;5105524;28;21054;-60
2022/07/27 10:51:15;;;;;;;1.83;1.27;;;;;;;;;;5113823;28;20855;-59
2022/07/27 10:53:43;;;;;;;3.90;1.33;;;;;;;;;;5111980;28;20457;-60
2022/07/27 10:56:10;;;;;;;1.27;0.87;;;;;;;;;;5112715;28;20485;-60
2022/07/27 10:58:48;;;;;;;3.13;1.20;;;;;;;;;;5113071;28;21030;-60
2022/07/27 11:01:17;;;;;;;1.53;1.03;;;;;;;;;;5112489;28;20188;-60
2022/07/27 11:03:55;;;;;;;1.80;1.17;;;;;;;;;;5105146;28;20865;-60
2022/07/27 11:06:24;;;;;;;2.77;0.90;;;;;;;;;;5099259;28;20474;-57
2022/07/27 11:08:52;;;;;;;1.63;1.10;;;;;;;;;;5094057;28;20447;-60
2022/07/27 11:11:19;;;;;;;2.97;1.20;;;;;;;;;;5108397;28;21021;-60
2022/07/27 11:13:47;;;;;;;2.70;0.90;;;;;;;;;;5111456;28;20449;-61
2022/07/27 11:16:16;;;;;;;1.37;1.00;;;;;;;;;;5112442;28;20804;-60
2022/07/27 11:18:44;;;;;;;5.83;1.00;;;;;;;;;;5112520;28;20458;-60
2022/07/27 11:21:17;;;;;;;1.63;0.80;;;;;;;;;;5108889;28;20486;-58
2022/07/27 11:23:44;;;;;;;1.57;1.10;;;;;;;;;;5106352;28;20971;-61
2022/07/27 11:26:11;;;;;;;1.43;0.83;;;;;;;;;;5104720;28;20474;-58
2022/07/27 11:28:39;;;;;;;2.10;0.90;;;;;;;;;;5112186;28;21041;-62
2022/07/27 11:31:06;;;;;;;3.30;1.10;;;;;;;;;;5113137;28;20441;-58
2022/07/27 11:33:33;;;;;;;2.33;1.00;;;;;;;;;;5112856;28;20533;-57
2022/07/27 11:36:01;;;;;;;1.87;1.13;;;;;;;;;;5113158;28;20438;-60
2022/07/27 11:38:30;;;;;;;1.93;1.23;;;;;;;;;;5113018;28;20445;-61
2022/07/27 11:40:57;;;;;;;4.03;1.00;;;;;;;;;;5111459;28;20536;-58
2022/07/27 11:43:34;;;;;;;2.40;0.93;;;;;;;;;;5110751;28;20453;-59
2022/07/27 11:46:11;;;;;;;3.67;1.30;;;;;;;;;;5113219;28;20473;-62
2022/07/27 11:48:38;;;;;;;1.57;1.40;;;;;;;;;;5111727;28;20540;-63
2022/07/27 11:51:05;;;;;;;4.83;1.20;;;;;;;;;;5111765;28;20974;-61
2022/07/27 11:53:34;;;;;;;1.50;1.30;;;;;;;;;;5112888;28;20515;-59
2022/07/27 11:56:00;;;;;;;6.10;1.33;;;;;;;;;;5110603;28;20473;-61
2022/07/27 11:58:27;;;;;;;2.47;1.13;;;;;;;;;;5110967;28;20452;-59
2022/07/27 12:00:54;;;;;;;2.80;1.10;;;;;;;;;;5113062;28;20446;-59
2022/07/27 12:03:22;;;;;;;2.77;1.20;;;;;;;;;;5112221;28;20449;-60
2022/07/27 12:05:49;;;;;;;2.05;1.13;;;;;;;;;;5112366;28;21002;-60
2022/07/27 12:08:16;;;;;;;2.73;1.00;;;;;;;;;;5112715;28;20192;-60
2022/07/27 12:10:58;;;;;;;1.73;0.90;;;;;;;;;;5112240;28;20442;-60
2022/07/27 12:13:32;;;;;;;4.33;1.57;;;;;;;;;;5111184;28;20449;-60
2022/07/27 12:15:59;;;;;;;3.83;2.10;;;;;;;;;;5110228;28;20533;-60
2022/07/27 12:18:26;;;;;;;1.23;0.90;;;;;;;;;;5112387;28;20438;-60
2022/07/27 12:20:53;;;;;;;1.60;1.00;;;;;;;;;;5112205;28;20869;-60
2022/07/27 12:23:20;;;;;;;3.13;1.17;;;;;;;;;;5112166;28;20475;-60
2022/07/27 12:25:48;;;;;;;2.90;0.90;;;;;;;;;;5112125;28;20442;-60
2022/07/27 12:28:24;;;;;;;2.23;1.23;;;;;;;;;;5109595;28;20970;-60
2022/07/27 12:30:52;;;;;;;2.30;1.00;;;;;;;;;;5112236;28;20465;-60
2022/07/27 12:33:26;;;;;;;3.23;0.73;;;;;;;;;;5112193;28;20966;-60
2022/07/27 12:35:53;;;;;;;1.83;1.10;;;;;;;;;;5112024;28;20534;-60
2022/07/27 12:38:20;;;;;;;1.97;1.00;;;;;;;;;;5112300;28;20448;-60
2022/07/27 12:40:48;;;;;;;1.57;0.97;;;;;;;;;;5112175;28;20528;-60
2022/07/27 12:43:17;;;;;;;2.20;1.00;;;;;;;;;;5109493;28;20446;-60
2022/07/27 12:45:44;;;;;;;2.07;1.10;;;;;;;;;;5114110;28;20446;-60
2022/07/27 12:48:12;;;;;;;1.90;0.77;;;;;;;;;;5116068;28;20483;-60
2022/07/27 12:50:39;;;;;;;2.80;1.30;;;;;;;;;;5116109;28;20952;-60
2022/07/27 12:53:06;;;;;;;1.93;0.87;;;;;;;;;;5116404;28;20452;-60
2022/07/27 12:55:33;;;;;;;1.83;1.00;;;;;;;;;;5115934;28;20452;-60
2022/07/27 12:58:00;;;;;;;2.77;1.50;;;;;;;;;;5115866;28;20851;-60
2022/07/27 13:00:29;;;;;;;4.10;1.20;;;;;;;;;;5115962;28;20808;-60
2022/07/27 13:02:57;;;;;;;3.63;1.40;;;;;;;;;;5116916;27;20453;-60
2022/07/27 13:05:24;;;;;;;3.07;1.10;;;;;;;;;;5115336;28;20448;-60
2022/07/27 13:07:52;;;;;;;2.53;1.30;;;;;;;;;;5115455;28;20530;-60
2022/07/27 13:10:19;;;;;;;2.53;0.90;;;;;;;;;;5115355;28;20459;-60
2022/07/27 13:12:46;;;;;;;2.40;1.20;;;;;;;;;;5115389;28;20528;-60
2022/07/27 13:15:14;;;;;;;1.87;1.00;;;;;;;;;;5115018;28;20441;-60
2022/07/27 13:17:42;;;;;;;2.77;1.10;;;;;;;;;;5115900;28;20441;-60
2022/07/27 13:20:11;;;;;;;2.87;1.47;;;;;;;;;;5115691;28;20441;-60
2022/07/27 13:22:38;;;;;;;4.40;1.23;;;;;;;;;;5114455;28;20445;-60
2022/07/27 13:25:06;;;;;;;2.40;0.90;;;;;;;;;;5115464;28;20437;-60
2022/07/27 13:27:33;;;;;;;1.73;0.90;;;;;;;;;;5115207;28;20999;-60
2022/07/27 13:30:00;;;;;;;1.47;1.07;;;;;;;;;;5115340;28;20452;-60
2022/07/27 13:32:27;;;;;;;1.20;1.00;;;;;;;;;;5107986;28;20445;-60
2022/07/27 13:34:56;;;;;;;3.63;0.80;;;;;;;;;;5115436;28;20438;-60
2022/07/27 13:37:23;;;;;;;2.87;0.90;;;;;;;;;;5114398;28;20936;-60
2022/07/27 13:39:50;;;;;;;2.70;1.20;;;;;;;;;;5114015;28;20442;-60
2022/07/27 13:42:17;;;;;;;6.33;1.07;;;;;;;;;;5115104;28;20537;-60
2022/07/27 13:44:44;;;;;;;2.03;0.80;;;;;;;;;;5115110;28;20477;-60
2022/07/27 13:47:11;;;;;;;1.33;1.00;;;;;;;;;;5115263;28;20492;-60
2022/07/27 13:49:37;;;;;;;2.50;1.00;;;;;;;;;;5115221;28;20471;-60
2022/07/27 13:52:07;;;;;;;3.50;1.10;;;;;;;;;;5114902;28;20910;-60
2022/07/27 13:54:34;;;;;;;1.47;0.93;;;;;;;;;;5114904;28;20499;-60
2022/07/27 13:57:01;;;;;;;2.70;1.10;;;;;;;;;;5113893;28;20569;-60
2022/07/27 13:59:28;;;;;;;2.23;0.90;;;;;;;;;;5114843;28;20448;-60
2022/07/27 14:01:55;;;;;;;2.03;0.80;;;;;;;;;;5114618;28;20948;-60
2022/07/27 14:04:22;;;;;;;2.53;1.27;;;;;;;;;;5114817;28;20446;-60
2022/07/27 14:06:49;;;;;;;1.83;1.47;;;;;;;;;;5114718;28;20470;-60
2022/07/27 14:09:17;;;;;;;3.50;1.10;;;;;;;;;;5114603;28;20806;-60
2022/07/27 14:11:44;;;;;;;3.63;1.20;;;;;;;;;;5114787;28;20445;-60
2022/07/27 14:14:11;;;;;;;1.87;1.17;;;;;;;;;;5114684;28;20448;-60
2022/07/27 14:16:38;;;;;;;2.13;1.10;;;;;;;;;;5114695;28;20544;-60
2022/07/27 14:19:05;;;;;;;3.43;1.30;;;;;;;;;;5114592;28;20458;-60
2022/07/27 14:21:32;;;;;;;2.43;1.00;;;;;;;;;;5114452;28;20683;-60
2022/07/27 14:24:00;;;;;;;1.60;1.00;;;;;;;;;;5114252;28;20523;-60
2022/07/27 14:26:28;;;;;;;1.93;1.20;;;;;;;;;;5114460;28;20805;-60
2022/07/27 14:28:56;;;;;;;2.00;1.03;;;;;;;;;;5114443;28;20540;-60
2022/07/27 14:31:23;;;;;;;2.83;1.57;;;;;;;;;;5114187;28;20446;-60
2022/07/27 14:33:50;;;;;;;1.63;1.13;;;;;;;;;;5114230;28;20437;-60
2022/07/27 14:36:17;;;;;;;1.50;1.00;;;;;;;;;;5114260;28;20495;-60
2022/07/27 14:38:44;;;;;;;2.73;1.03;;;;;;;;;;5114351;28;20446;-60
2022/07/27 14:41:11;;;;;;;3.67;1.20;;;;;;;;;;5114270;28;20876;-60
2022/07/27 14:43:40;;;;;;;2.03;1.10;;;;;;;;;;5114131;28;20797;-60
2022/07/27 14:46:07;;;;;;;1.43;1.00;;;;;;;;;;5113981;28;20536;-60
2022/07/27 14:48:33;;;;;;;1.43;1.03;;;;;;;;;;5113889;28;20879;-60
2022/07/27 14:51:00;;;;;;;2.90;1.63;;;;;;;;;;5113722;28;20445;-60
2022/07/27 14:53:27;;;;;;;3.53;1.20;;;;;;;;;;5113954;28;20471;-60